»·PEaware :: SWA486 KGEG-KSMF

SWA486 :: KGEG-KSMF

FLIGHT INFORMATION

Flight Status: Arrived
Operator:
Southwest Airlines
More flights by this operator :: More flights under this callsign
Pilot: Steve F. (26981)
Aircraft: BOEING 737-900
(B739)
More flights by this aircraft type
Origin: KGEG Spokane Intl
United States
Destination: KSMF Sacramento Intl
United States
More flights between these airports :: More routes between these airports
Route: GEG6 PDT LKV TUDOR2
File this flight plan on PilotEdge
Remarks:
Altitude:
(Current/Filed)
36,000ft
Speed:
(Current/Filed)
430kts
Departed: 11-Aug-23 01:20 PM
Arrived: 11-Aug-23 02:45 PM
Distance/Time
Traveled:
564nm/1:24
Distance/Time
To Go:
Arrived

Flight Plot

Page will automatically refresh every two minutes.

Flight plan parsing failed; only flown route is shown


Map Options




Map Legend


Flown Route
Filed Route
Departure Airport
Arrival Airport
Navaid (VOR, NDB)
Fix

Horizontal Profiles

Position Reports

Time Latitude Longitude Heading Altitude Ground
Speed
11-Aug-23 13:01 47.625073 -117.535432 272 2358ft 0kts
11-Aug-23 13:02 47.625073 -117.535432 272 2358ft 0kts
11-Aug-23 13:03 47.625073 -117.535432 272 2358ft 0kts
11-Aug-23 13:04 47.625073 -117.535432 272 2358ft 0kts
11-Aug-23 13:05 47.625073 -117.535432 272 2358ft 0kts
11-Aug-23 13:06 47.625073 -117.535432 272 2358ft 0kts
11-Aug-23 13:07 47.625073 -117.535432 272 2358ft 0kts
11-Aug-23 13:08 47.625073 -117.535432 272 2358ft 0kts
11-Aug-23 13:09 47.625073 -117.535432 272 2358ft 0kts
11-Aug-23 13:10 47.625073 -117.535432 272 2358ft 0kts
11-Aug-23 13:11 47.625073 -117.535432 272 2358ft 0kts
11-Aug-23 13:12 47.625062 -117.535021 272 2358ft 0kts
11-Aug-23 13:14 47.625062 -117.535021 272 2358ft 0kts
11-Aug-23 13:15 47.625061 -117.535046 266 2358ft 1kts
11-Aug-23 13:16 47.624102 -117.533628 113 2358ft 10kts
11-Aug-23 13:17 47.627005 -117.528698 46 2358ft 22kts
11-Aug-23 13:18 47.631506 -117.521886 45 2358ft 22kts
11-Aug-23 13:19 47.631187 -117.518468 202 2358ft 5kts
11-Aug-23 13:20 47.610659 -117.549644 225 2818ft 193kts
11-Aug-23 13:21 47.567525 -117.611600 222 5647ft 250kts
11-Aug-23 13:22 47.515151 -117.687822 224 8853ft 278kts
11-Aug-23 13:23 47.458092 -117.767156 217 11855ft 291kts
11-Aug-23 13:24 47.377020 -117.817807 206 13493ft 343kts
11-Aug-23 13:25 47.284656 -117.880551 208 15082ft 385kts
11-Aug-23 13:26 47.185781 -117.948871 207 17351ft 398kts
11-Aug-23 13:27 47.084002 -118.018308 207 19341ft 409kts
11-Aug-23 13:28 46.978972 -118.090374 207 21023ft 422kts
11-Aug-23 13:29 46.871258 -118.163571 207 22558ft 432kts
11-Aug-23 13:30 46.760733 -118.238215 207 23929ft 441kts
11-Aug-23 13:31 46.648187 -118.313851 207 25129ft 449kts
11-Aug-23 13:32 46.533758 -118.390393 207 26225ft 456kts
11-Aug-23 13:33 46.417536 -118.467775 207 27182ft 462kts
11-Aug-23 13:34 46.300154 -118.545561 207 28181ft 464kts
11-Aug-23 13:35 46.183607 -118.622436 207 29389ft 459kts
11-Aug-23 13:36 46.067407 -118.698729 207 30458ft 458kts
11-Aug-23 13:37 45.951443 -118.774813 207 31403ft 458kts
11-Aug-23 13:38 45.835615 -118.850075 207 32346ft 456kts
11-Aug-23 13:38 45.739608 -118.912115 207 33076ft 455kts
11-Aug-23 13:39 45.621639 -118.979326 202 33868ft 456kts
11-Aug-23 13:41 45.482468 -119.049950 202 34750ft 453kts
11-Aug-23 13:42 45.363850 -119.110552 202 35357ft 453kts
11-Aug-23 13:43 45.245829 -119.171231 202 35981ft 451kts
11-Aug-23 13:43 45.147184 -119.221494 202 36073ft 451kts
11-Aug-23 13:44 45.029339 -119.281232 202 36080ft 451kts
11-Aug-23 13:45 44.910678 -119.341109 202 36087ft 452kts
11-Aug-23 13:47 44.772189 -119.410659 202 36099ft 453kts
11-Aug-23 13:47 44.673137 -119.460185 202 36106ft 454kts
11-Aug-23 13:49 44.534325 -119.529285 201 36105ft 454kts
11-Aug-23 13:49 44.435130 -119.578453 201 36107ft 454kts
11-Aug-23 13:50 44.315815 -119.637359 201 36119ft 455kts
11-Aug-23 13:51 44.196396 -119.696061 201 36125ft 456kts
11-Aug-23 13:52 44.076433 -119.754775 201 36134ft 456kts
11-Aug-23 13:53 43.956818 -119.813069 201 36141ft 456kts
11-Aug-23 13:54 43.837176 -119.871129 201 36139ft 456kts
11-Aug-23 13:55 43.717253 -119.929080 201 36140ft 456kts
11-Aug-23 13:56 43.597467 -119.986716 201 36142ft 456kts
11-Aug-23 13:57 43.477461 -120.044215 201 36146ft 457kts
11-Aug-23 13:58 43.356911 -120.101733 201 36148ft 457kts
11-Aug-23 13:59 43.236665 -120.158866 200 36150ft 458kts
11-Aug-23 14:00 43.115779 -120.216065 200 36154ft 459kts
11-Aug-23 14:01 42.994825 -120.273055 200 36159ft 460kts
11-Aug-23 14:02 42.873673 -120.329905 200 36162ft 462kts
11-Aug-23 14:03 42.752128 -120.386889 200 36178ft 462kts
11-Aug-23 14:04 42.630540 -120.443407 199 36184ft 463kts
11-Aug-23 14:05 42.508319 -120.499939 199 36185ft 463kts
11-Aug-23 14:06 42.390243 -120.568839 205 36187ft 463kts
11-Aug-23 14:07 42.272781 -120.640772 204 36187ft 463kts
11-Aug-23 14:08 42.155958 -120.711653 205 36174ft 463kts
11-Aug-23 14:09 42.038407 -120.782905 204 36159ft 464kts
11-Aug-23 14:10 41.920493 -120.853830 204 36153ft 466kts
11-Aug-23 14:11 41.802327 -120.924593 204 36147ft 466kts
11-Aug-23 14:12 41.684005 -120.995381 204 36143ft 465kts
11-Aug-23 14:13 41.565296 -121.065730 204 36141ft 466kts
11-Aug-23 14:14 41.447055 -121.135561 204 36136ft 466kts
11-Aug-23 14:15 41.328266 -121.205313 204 36132ft 466kts
11-Aug-23 14:16 41.209679 -121.274681 204 36110ft 466kts
11-Aug-23 14:17 41.090863 -121.344466 204 36093ft 467kts
11-Aug-23 14:18 40.971625 -121.413940 203 34872ft 468kts
11-Aug-23 14:19 40.851286 -121.483722 203 32509ft 474kts
11-Aug-23 14:20 40.729481 -121.554124 203 30109ft 481kts
11-Aug-23 14:21 40.606143 -121.625203 203 27716ft 488kts
11-Aug-23 14:22 40.480654 -121.696258 199 25316ft 492kts
11-Aug-23 14:23 40.348396 -121.712714 171 22917ft 471kts
11-Aug-23 14:24 40.219955 -121.700389 175 20510ft 453kts
11-Aug-23 14:25 40.098975 -121.690213 175 18117ft 423kts
11-Aug-23 14:26 39.984377 -121.680428 175 15707ft 401kts
11-Aug-23 14:27 39.875397 -121.671125 175 13310ft 386kts
11-Aug-23 14:28 39.771164 -121.662221 176 12109ft 372kts
11-Aug-23 14:29 39.668098 -121.653495 176 12013ft 357kts
11-Aug-23 14:30 39.578700 -121.645943 175 12008ft 295kts
11-Aug-23 14:31 39.497494 -121.639089 175 11667ft 292kts
11-Aug-23 14:32 39.415977 -121.632216 176 9991ft 294kts
11-Aug-23 14:33 39.334654 -121.625401 176 8416ft 289kts
11-Aug-23 14:34 39.255225 -121.618756 176 7100ft 282kts
11-Aug-23 14:35 39.177370 -121.612237 176 5882ft 277kts
11-Aug-23 14:36 39.101472 -121.605950 176 4469ft 271kts
11-Aug-23 14:37 39.027223 -121.599821 176 4017ft 268kts
11-Aug-23 14:38 38.957202 -121.596232 182 3987ft 230kts
11-Aug-23 14:39 38.894905 -121.597940 181 3638ft 220kts
11-Aug-23 14:40 38.835738 -121.598843 181 2517ft 200kts
11-Aug-23 14:41 38.783693 -121.599665 181 1537ft 167kts
11-Aug-23 14:42 38.741184 -121.600530 182 696ft 149kts
11-Aug-23 14:43 38.700241 -121.601203 182 35ft 119kts
11-Aug-23 14:44 38.690548 -121.599853 90 35ft 14kts
11-Aug-23 14:45 38.694140 -121.598671 0 35ft 18kts
11-Aug-23 14:46 38.694729 -121.594677 47 35ft 10kts
11-Aug-23 14:47 38.695222 -121.594569 0 35ft 0kts
11-Aug-23 14:48 38.695222 -121.594569 0 35ft 0kts
11-Aug-23 14:49 38.695222 -121.594569 0 35ft 0kts
11-Aug-23 14:50 38.695222 -121.594569 0 35ft 0kts
11-Aug-23 14:51 38.695222 -121.594569 0 35ft 0kts
11-Aug-23 14:52 38.695222 -121.594569 0 35ft 0kts
11-Aug-23 14:53 38.695222 -121.594569 0 35ft 0kts
11-Aug-23 14:54 38.695222 -121.594569 0 35ft 0kts
11-Aug-23 14:55 38.695222 -121.594569 0 35ft 0kts
11-Aug-23 14:56 38.695222 -121.594569 0 35ft 0kts
11-Aug-23 14:57 38.695222 -121.594569 0 35ft 0kts
11-Aug-23 14:58 38.695222 -121.594569 0 35ft 0kts

Navigation Log

Ident Type
Flight plan parsing failed, navigation log unavailable